Oakville, California
Current Conditions -  °F | °C
As of 9:54 PM on Saturday 25 Oct 2014 (Local Time) from KAPC Reporting Station
Overcast Overcast  
Wind Chill: 60°   Ceiling: 5000
Heat Index: 60°   Visibility: 8mi
Dew Point: 56°   Wind: 5mph
Humidity: 86%   Direction: 250°WSW
Pressure: 30.12"   Gusts: NA
Location:  38.44°N, 122.4°W
Report Text: KAPC 260454Z AUTO 25004KT 8SM FEW039 BKN050 OVC100 16/13 A3012 RMK AO2 RAB34E44 SLP191 P0000 T01560133
Loading
Personal Weather Stations






























Interactive Weather Map
Tropical Storm Tracking
New forecast layout! Learn more

10-Day Weather Forecast

Advertisements
Track Severe Weather on mobile